createdAt,value
2023-11-17T00:00:20.321Z,101129.19
2023-11-17T00:02:48.273Z,101112.25
2023-11-17T00:05:16.760Z,101114.97
2023-11-17T00:07:44.780Z,101112.03
2023-11-17T00:10:15.399Z,101118.31
2023-11-17T00:12:43.316Z,101121.56
2023-11-17T00:15:13.734Z,101120.50
2023-11-17T00:17:42.068Z,101115.03
2023-11-17T00:20:11.106Z,101120.81
2023-11-17T00:22:39.255Z,101121.63
2023-11-17T00:25:08.139Z,101108.59
2023-11-17T00:27:39.128Z,101121.91
2023-11-17T00:30:08.843Z,101066.88
2023-11-17T00:32:37.413Z,101113.72
2023-11-17T00:35:08.368Z,101107.22
2023-11-17T00:37:40.500Z,101119.50
2023-11-17T00:40:10.282Z,101127.19
2023-11-17T00:42:38.538Z,101130.72
2023-11-17T00:45:09.134Z,101123.34
2023-11-17T00:47:37.292Z,101112.91
2023-11-17T00:50:12.610Z,101106.31
2023-11-17T00:52:43.288Z,101111.78
2023-11-17T00:55:14.724Z,101110.97
2023-11-17T00:57:43.700Z,101118.88
2023-11-17T01:00:13.142Z,101112.41
2023-11-17T01:02:42.412Z,101116.97
2023-11-17T01:05:10.940Z,101120.00
2023-11-17T01:07:40.194Z,101123.25
2023-11-17T01:10:09.287Z,101117.25
2023-11-17T01:12:37.642Z,101123.53
2023-11-17T01:15:06.010Z,101124.16
2023-11-17T01:17:33.991Z,101129.91
2023-11-17T01:20:02.471Z,101128.00
2023-11-17T01:22:31.024Z,101123.41
2023-11-17T01:24:59.007Z,101122.88
2023-11-17T01:27:27.004Z,101125.91
2023-11-17T01:29:55.141Z,101143.13
2023-11-17T01:32:23.965Z,101113.56
2023-11-17T01:34:55.514Z,101140.09
2023-11-17T01:37:23.734Z,101149.41
2023-11-17T01:39:51.876Z,101149.72
2023-11-17T01:42:20.878Z,101148.59
2023-11-17T01:44:49.526Z,101155.69
2023-11-17T01:47:17.891Z,101148.59
2023-11-17T01:49:46.346Z,101134.69
2023-11-17T01:52:14.433Z,101135.69
2023-11-17T01:54:42.613Z,101124.44
2023-11-17T01:57:11.974Z,101133.16
2023-11-17T01:59:40.084Z,101115.19
2023-11-17T02:02:08.366Z,101115.94
2023-11-17T02:04:37.268Z,101120.50
2023-11-17T02:07:43.704Z,101125.97
2023-11-17T02:10:29.890Z,101137.22
2023-11-17T02:13:12.420Z,101131.75
2023-11-17T02:15:42.752Z,101098.34
2023-11-17T02:18:14.438Z,101114.38
2023-11-17T02:20:46.129Z,101129.63
2023-11-17T02:23:17.125Z,101140.75
2023-11-17T02:26:01.478Z,101147.03
2023-11-17T02:28:43.311Z,101144.84
2023-11-17T02:31:27.314Z,101142.38
2023-11-17T02:33:58.564Z,101137.50
2023-11-17T02:36:27.951Z,101142.97
2023-11-17T02:39:14.204Z,101139.44
2023-11-17T02:41:50.353Z,101130.41
2023-11-17T02:44:18.684Z,101108.56
2023-11-17T02:46:47.371Z,101106.13
2023-11-17T02:49:23.605Z,101116.81
2023-11-17T02:51:53.472Z,101109.97
2023-11-17T02:54:25.416Z,101118.44
2023-11-17T02:56:54.472Z,101127.25
2023-11-17T02:59:23.303Z,101125.75
2023-11-17T03:01:53.856Z,101124.66
2023-11-17T03:04:22.050Z,101129.31
2023-11-17T03:06:51.642Z,101120.28
2023-11-17T03:09:24.878Z,101116.75
2023-11-17T03:11:54.294Z,101107.44
2023-11-17T03:14:26.158Z,101115.94
2023-11-17T03:17:03.007Z,101121.09
2023-11-17T03:19:32.372Z,101113.41
2023-11-17T03:22:02.338Z,101118.69
2023-11-17T03:24:31.446Z,101122.72
2023-11-17T03:26:59.482Z,101107.22
2023-11-17T03:29:33.485Z,101107.44
2023-11-17T03:32:02.362Z,101111.78
2023-11-17T03:34:32.530Z,101118.88
2023-11-17T03:37:05.469Z,101107.94
2023-11-17T03:39:44.072Z,101110.41
2023-11-17T03:42:14.813Z,101109.56
2023-11-17T03:44:43.273Z,101104.69
2023-11-17T03:47:13.654Z,101107.94
2023-11-17T03:49:45.406Z,101110.97
2023-11-17T03:52:16.859Z,101104.69
2023-11-17T03:54:44.988Z,101113.81
2023-11-17T03:57:13.981Z,101097.03
2023-11-17T03:59:47.861Z,101123.91
2023-11-17T04:02:16.732Z,101130.22
2023-11-17T04:04:44.734Z,101127.75
2023-11-17T04:07:15.777Z,101132.09
2023-11-17T04:09:44.414Z,101134.56
2023-11-17T04:12:12.532Z,101136.25
2023-11-17T04:14:41.221Z,101141.41
2023-11-17T04:17:11.896Z,101142.53
2023-11-17T04:19:42.270Z,101121.91
2023-11-17T04:22:11.296Z,101135.94
2023-11-17T04:24:39.371Z,101136.25
2023-11-17T04:27:12.234Z,101137.06
2023-11-17T04:29:40.786Z,101132.72
2023-11-17T04:32:10.360Z,101130.22
2023-11-17T04:34:38.595Z,101137.31
2023-11-17T04:37:09.616Z,101134.28
2023-11-17T04:39:37.802Z,101121.09
2023-11-17T04:42:06.168Z,101126.56
2023-11-17T04:44:34.788Z,101116.75
2023-11-17T04:47:02.798Z,101118.69
2023-11-17T04:49:30.670Z,101125.75
2023-11-17T04:51:58.693Z,101117.88
2023-11-17T04:54:26.619Z,101116.25
2023-11-17T04:56:56.640Z,101112.41
2023-11-17T04:59:24.730Z,101112.41
2023-11-17T05:01:52.763Z,101119.28
2023-11-17T05:04:20.852Z,101108.16
2023-11-17T05:06:49.329Z,101122.81
2023-11-17T05:09:18.544Z,101124.75
2023-11-17T05:11:46.514Z,101121.16
2023-11-17T05:14:14.880Z,101109.88
2023-11-17T05:16:44.412Z,101134.84
2023-11-17T05:19:15.149Z,101127.75
2023-11-17T05:21:43.667Z,101126.13
2023-11-17T05:24:12.780Z,101129.66
2023-11-17T05:26:41.120Z,101110.84
2023-11-17T05:29:09.103Z,101125.31
2023-11-17T05:31:37.084Z,101121.78
2023-11-17T05:34:05.168Z,101118.22
2023-11-17T05:36:40.670Z,101111.94
2023-11-17T05:39:10.392Z,101125.00
2023-11-17T05:41:38.395Z,101127.75
2023-11-17T05:44:06.542Z,101121.78
2023-11-17T05:46:34.771Z,101120.66
2023-11-17T05:49:03.264Z,101124.50
2023-11-17T05:51:32.091Z,101133.81
2023-11-17T05:54:00.014Z,101131.91
2023-11-17T05:56:27.875Z,101125.31
2023-11-17T05:58:55.742Z,101123.41
2023-11-17T06:01:25.210Z,101119.53
2023-11-17T06:03:53.429Z,101116.59
2023-11-17T06:06:22.494Z,101115.50
2023-11-17T06:08:50.406Z,101104.84
2023-11-17T06:11:26.217Z,101105.66
2023-11-17T06:13:54.431Z,101107.28
2023-11-17T06:16:25.163Z,101107.00
2023-11-17T06:18:54.023Z,101104.25
2023-11-17T06:21:22.111Z,101115.19
2023-11-17T06:23:50.659Z,101119.84
2023-11-17T06:26:18.907Z,101116.00
2023-11-17T06:28:47.939Z,101128.00
2023-11-17T06:31:16.334Z,101141.97
2023-11-17T06:33:44.935Z,101147.13
2023-11-17T06:36:13.253Z,101147.63
2023-11-17T06:38:46.728Z,101157.75
2023-11-17T06:41:15.844Z,101167.59
2023-11-17T06:43:44.515Z,101159.38
2023-11-17T06:46:12.974Z,101169.00
2023-11-17T06:48:43.382Z,101165.75
2023-11-17T06:51:12.080Z,101159.97
2023-11-17T06:53:40.241Z,101162.72
2023-11-17T06:56:08.458Z,101167.59
2023-11-17T06:58:36.752Z,101174.69
2023-11-17T07:01:06.396Z,101171.38
2023-11-17T07:03:34.551Z,101174.00
2023-11-17T07:06:02.915Z,101179.38
2023-11-17T07:08:31.681Z,101185.94
2023-11-17T07:11:00.282Z,101171.41
2023-11-17T07:13:28.614Z,101174.38
2023-11-17T07:15:56.873Z,101166.69
2023-11-17T07:18:24.969Z,101166.16
2023-11-17T07:20:54.982Z,101166.16
2023-11-17T07:23:23.094Z,101169.72
2023-11-17T07:25:51.268Z,101171.03
2023-11-17T07:28:19.331Z,101187.69
2023-11-17T07:30:49.245Z,101190.63
2023-11-17T07:33:20.180Z,101201.56
2023-11-17T07:35:48.133Z,101207.03
2023-11-17T07:38:16.049Z,101208.13
2023-11-17T07:40:44.354Z,101201.84
2023-11-17T07:43:12.485Z,101207.84
2023-11-17T07:45:40.865Z,101201.66
2023-11-17T07:48:09.021Z,101201.56
2023-11-17T07:50:37.507Z,101203.19
2023-11-17T07:53:05.519Z,101201.28
2023-11-17T07:55:33.746Z,101207.56
2023-11-17T07:58:05.179Z,101208.66
2023-11-17T08:00:35.579Z,101223.69
2023-11-17T08:03:04.030Z,101222.31
2023-11-17T08:05:32.491Z,101226.13
2023-11-17T08:08:01.964Z,101227.75
2023-11-17T08:10:30.762Z,101216.94
2023-11-17T08:12:59.954Z,101235.44
2023-11-17T08:15:30.489Z,101224.25
2023-11-17T08:17:58.937Z,101226.25
2023-11-17T08:20:27.218Z,101222.91
2023-11-17T08:22:55.939Z,101228.91
2023-11-17T08:25:28.002Z,101231.41
2023-11-17T08:27:56.708Z,101240.94
2023-11-17T08:30:33.532Z,101247.22
2023-11-17T08:33:05.307Z,101250.25
2023-11-17T08:35:33.545Z,101271.00
2023-11-17T08:38:01.743Z,101266.66
2023-11-17T08:40:30.261Z,101271.53
2023-11-17T08:42:58.858Z,101262.53
2023-11-17T08:45:26.774Z,101255.38
2023-11-17T08:47:55.129Z,101252.34
2023-11-17T08:50:23.306Z,101269.00
2023-11-17T08:52:51.651Z,101240.72
2023-11-17T08:55:20.086Z,101240.72
2023-11-17T08:57:48.246Z,101245.31
2023-11-17T09:00:20.472Z,101245.91
2023-11-17T09:02:52.311Z,101244.56
2023-11-17T09:05:21.780Z,101235.56
2023-11-17T09:07:54.127Z,101236.38
2023-11-17T09:10:23.864Z,101236.38
2023-11-17T09:12:52.828Z,101246.19
2023-11-17T09:15:25.156Z,101247.00
2023-11-17T09:17:54.658Z,101250.84
2023-11-17T09:20:25.278Z,101247.13
2023-11-17T09:22:53.983Z,101266.19
2023-11-17T09:25:24.904Z,101268.09
2023-11-17T09:27:55.099Z,101262.19
2023-11-17T09:30:23.145Z,101263.81
2023-11-17T09:32:57.071Z,101265.72
2023-11-17T09:35:29.566Z,101264.91
2023-11-17T09:38:01.330Z,101276.38
2023-11-17T09:40:34.855Z,101274.97
2023-11-17T09:43:25.626Z,101270.31
2023-11-17T09:45:55.470Z,101282.59
2023-11-17T09:48:25.356Z,101277.13
2023-11-17T09:50:54.188Z,101275.75
2023-11-17T09:53:25.300Z,101276.56
2023-11-17T09:55:55.097Z,101284.69
2023-11-17T09:58:23.339Z,101281.66
2023-11-17T10:00:52.666Z,101283.31
2023-11-17T10:03:22.885Z,101283.81
2023-11-17T10:05:51.912Z,101283.22
2023-11-17T10:08:24.666Z,101284.34
2023-11-17T10:10:52.845Z,101284.56
2023-11-17T10:13:22.125Z,101272.00
2023-11-17T10:15:56.538Z,101283.19
2023-11-17T10:18:27.502Z,101274.69
2023-11-17T10:20:55.961Z,101274.38
2023-11-17T10:23:24.006Z,101281.75
2023-11-17T10:25:57.349Z,101274.06
2023-11-17T10:28:28.339Z,101266.19
2023-11-17T10:31:02.522Z,101270.22
2023-11-17T10:33:47.199Z,101268.25
2023-11-17T10:36:21.598Z,101265.50
2023-11-17T10:39:04.729Z,101268.75
2023-11-17T10:41:34.373Z,101261.44
2023-11-17T10:44:04.308Z,101263.81
2023-11-17T10:46:45.903Z,101266.53
2023-11-17T10:49:18.287Z,101266.31
2023-11-17T10:51:47.994Z,101271.78
2023-11-17T10:54:16.114Z,101261.66
2023-11-17T10:56:46.108Z,101253.75
2023-11-17T10:59:17.463Z,101259.78
2023-11-17T11:01:49.941Z,101257.81
2023-11-17T11:04:27.483Z,101258.13
2023-11-17T11:06:57.715Z,101239.03
2023-11-17T11:09:34.663Z,101250.94
2023-11-17T11:12:07.650Z,101247.63
2023-11-17T11:14:40.536Z,101242.16
2023-11-17T11:17:11.412Z,101239.13
2023-11-17T11:19:52.734Z,101238.00
2023-11-17T11:22:30.879Z,101225.97
2023-11-17T11:25:00.371Z,101225.66
2023-11-17T11:27:29.521Z,101221.84
2023-11-17T11:29:58.998Z,101227.53
2023-11-17T11:32:28.036Z,101220.13
2023-11-17T11:34:58.564Z,101212.97
2023-11-17T11:37:33.904Z,101218.44
2023-11-17T11:40:02.757Z,101226.66
2023-11-17T11:42:31.643Z,101220.38
2023-11-17T11:45:01.531Z,101223.38
2023-11-17T11:47:30.084Z,101223.91
2023-11-17T11:49:58.704Z,101222.25
2023-11-17T11:52:36.269Z,101206.44
2023-11-17T11:55:08.311Z,101204.22
2023-11-17T11:57:36.521Z,101207.25
2023-11-17T12:00:22.593Z,101208.66
2023-11-17T12:03:00.619Z,101197.50
2023-11-17T12:05:35.353Z,101169.53
2023-11-17T12:08:04.890Z,101196.09
2023-11-17T12:10:44.445Z,101201.59
2023-11-17T12:13:40.969Z,101205.94
2023-11-17T12:16:20.159Z,101199.13
2023-11-17T12:18:52.410Z,101198.31
2023-11-17T12:21:22.789Z,101198.59
2023-11-17T12:23:51.302Z,101194.53
2023-11-17T12:26:20.928Z,101194.53
2023-11-17T12:28:49.942Z,101206.59
2023-11-17T12:31:20.145Z,101206.09
2023-11-17T12:33:53.242Z,101204.16
2023-11-17T12:36:25.905Z,101204.97
2023-11-17T12:38:58.738Z,101195.66
2023-11-17T12:41:30.223Z,101202.75
2023-11-17T12:43:58.932Z,101186.50
2023-11-17T12:46:28.622Z,101195.66
2023-11-17T12:48:59.228Z,101196.78
2023-11-17T12:51:29.629Z,101195.66
2023-11-17T12:54:00.442Z,101198.41
2023-11-17T12:56:30.035Z,101190.75
2023-11-17T12:58:58.524Z,101186.94
2023-11-17T13:01:29.930Z,101192.41
2023-11-17T13:03:58.463Z,101197.88
2023-11-17T13:06:28.858Z,101195.16
2023-11-17T13:08:58.728Z,101195.97
2023-11-17T13:11:36.013Z,101201.13
2023-11-17T13:14:09.929Z,101196.78
2023-11-17T13:16:38.349Z,101192.41
2023-11-17T13:19:08.494Z,101195.16
2023-11-17T13:21:39.296Z,101203.34
2023-11-17T13:24:07.932Z,101203.34
2023-11-17T13:26:36.911Z,101200.06
2023-11-17T13:29:14.410Z,101207.78
2023-11-17T13:31:43.514Z,101212.44
2023-11-17T13:34:18.223Z,101211.09
2023-11-17T13:36:46.874Z,101211.69
2023-11-17T13:39:15.175Z,101219.06
2023-11-17T13:41:45.394Z,101219.06
2023-11-17T13:44:28.823Z,101221.81
2023-11-17T13:47:02.828Z,101191.69
2023-11-17T13:49:36.485Z,101186.28
2023-11-17T13:52:11.401Z,101213.97
2023-11-17T13:54:40.470Z,101213.38
2023-11-17T13:57:10.397Z,101210.97
2023-11-17T13:59:38.701Z,101208.72
2023-11-17T14:02:11.019Z,101209.75
2023-11-17T14:04:39.882Z,101213.31
2023-11-17T14:07:10.966Z,101214.19
2023-11-17T14:09:41.102Z,101222.31
2023-11-17T14:12:10.487Z,101229.16
2023-11-17T14:14:43.006Z,101201.66
2023-11-17T14:17:13.573Z,101221.25
2023-11-17T14:19:44.461Z,101219.00
2023-11-17T14:22:15.244Z,101219.81
2023-11-17T14:24:44.706Z,101224.78
2023-11-17T14:27:13.661Z,101213.91
2023-11-17T14:29:44.562Z,101220.19
2023-11-17T14:32:17.082Z,101226.97
2023-11-17T14:34:47.347Z,101218.25
2023-11-17T14:37:16.526Z,101218.25
2023-11-17T14:39:44.977Z,101216.94
2023-11-17T14:42:13.295Z,101221.00
2023-11-17T14:44:41.651Z,101224.84
2023-11-17T14:47:10.658Z,101221.59
2023-11-17T14:49:40.103Z,101217.25
2023-11-17T14:52:09.489Z,101221.59
2023-11-17T14:54:38.575Z,101222.09
2023-11-17T14:57:06.902Z,101219.88
2023-11-17T14:59:35.619Z,101216.28
2023-11-17T15:02:04.756Z,101220.34
2023-11-17T15:04:33.921Z,101212.72
2023-11-17T15:07:02.338Z,101215.53
2023-11-17T15:09:31.620Z,101233.25
2023-11-17T15:11:59.695Z,101243.38
2023-11-17T15:14:28.489Z,101241.47
2023-11-17T15:16:58.005Z,101227.56
2023-11-17T15:19:27.995Z,101240.94
2023-11-17T15:21:58.279Z,101239.13
2023-11-17T15:24:28.764Z,101251.69
2023-11-17T15:26:57.462Z,101238.84
2023-11-17T15:29:32.259Z,101243.19
2023-11-17T15:32:10.342Z,101246.22
2023-11-17T15:34:39.230Z,101245.69
2023-11-17T15:37:10.708Z,101265.34
2023-11-17T15:39:39.942Z,101266.16
2023-11-17T15:42:09.727Z,101271.94
2023-11-17T15:44:38.526Z,101272.75
2023-11-17T15:47:10.451Z,101271.63
2023-11-17T15:49:38.871Z,101275.47
2023-11-17T15:52:07.151Z,101280.13
2023-11-17T15:54:35.215Z,101281.25
2023-11-17T15:57:04.243Z,101283.97
2023-11-17T15:59:32.820Z,101281.78
2023-11-17T16:02:03.947Z,101273.88
2023-11-17T16:04:33.642Z,101279.38
2023-11-17T16:07:02.046Z,101296.09
2023-11-17T16:09:30.404Z,101293.66
2023-11-17T16:12:00.578Z,101245.78
2023-11-17T16:14:29.502Z,101265.63
2023-11-17T16:16:58.843Z,101289.50
2023-11-17T16:19:27.090Z,101280.78
2023-11-17T16:22:00.001Z,101291.72
2023-11-17T16:24:28.483Z,101302.16
2023-11-17T16:26:56.755Z,101300.22
2023-11-17T16:29:26.754Z,101298.88
2023-11-17T16:31:55.086Z,101298.59
2023-11-17T16:34:24.682Z,101301.34
2023-11-17T16:36:54.028Z,101301.59
2023-11-17T16:39:22.840Z,101298.88
2023-11-17T16:41:54.218Z,101299.72
2023-11-17T16:44:24.708Z,101301.59
2023-11-17T16:46:53.194Z,101306.56
2023-11-17T16:49:23.214Z,101309.28
2023-11-17T16:51:51.917Z,101287.03
2023-11-17T16:54:20.303Z,101316.38
2023-11-17T16:56:50.033Z,101315.28
2023-11-17T16:59:18.312Z,101321.84
2023-11-17T17:01:46.649Z,101331.16
2023-11-17T17:04:14.973Z,101333.91
2023-11-17T17:06:43.895Z,101344.31
2023-11-17T17:09:15.982Z,101334.53
2023-11-17T17:11:46.906Z,101345.13
2023-11-17T17:14:20.429Z,101347.88
2023-11-17T17:16:54.521Z,101353.03
2023-11-17T17:19:23.901Z,101358.78
2023-11-17T17:21:52.597Z,101365.06
2023-11-17T17:24:21.678Z,101363.44
2023-11-17T17:26:51.956Z,101365.13
2023-11-17T17:29:23.087Z,101377.13
2023-11-17T17:31:51.595Z,101376.00
2023-11-17T17:34:21.546Z,101383.41
2023-11-17T17:36:49.769Z,101385.31
2023-11-17T17:39:18.473Z,101382.59
2023-11-17T17:41:49.836Z,101386.44
2023-11-17T17:44:21.503Z,101395.19
2023-11-17T17:46:51.904Z,101411.84
2023-11-17T17:49:20.090Z,101402.00
2023-11-17T17:51:48.185Z,101387.53
2023-11-17T17:54:17.866Z,101403.06
2023-11-17T17:56:45.976Z,101397.28
2023-11-17T17:59:15.502Z,101403.59
2023-11-17T18:01:47.187Z,101400.00
2023-11-17T18:04:17.304Z,101407.09
2023-11-17T18:06:46.183Z,101403.25
2023-11-17T18:09:16.342Z,101414.19
2023-11-17T18:11:45.812Z,101426.53
2023-11-17T18:14:15.496Z,101425.72
2023-11-17T18:16:43.808Z,101430.94
2023-11-17T18:19:13.970Z,101440.78
2023-11-17T18:21:42.273Z,101438.03
2023-11-17T18:24:11.789Z,101445.69
2023-11-17T18:26:59.209Z,101444.06
2023-11-17T18:29:29.039Z,101442.72
2023-11-17T18:31:57.158Z,101441.63
2023-11-17T18:34:25.503Z,101440.00
2023-11-17T18:36:56.173Z,101439.47
2023-11-17T18:39:27.088Z,101455.06
2023-11-17T18:42:02.551Z,101462.69
2023-11-17T18:44:32.611Z,101460.47
2023-11-17T18:47:02.796Z,101444.69
2023-11-17T18:49:32.197Z,101452.28
2023-11-17T18:52:00.516Z,101456.88
2023-11-17T18:54:29.241Z,101459.63
2023-11-17T18:56:57.277Z,101454.69
2023-11-17T18:59:26.377Z,101455.50
2023-11-17T19:01:57.254Z,101458.22
2023-11-17T19:04:25.952Z,101446.75
2023-11-17T19:06:54.501Z,101444.66
2023-11-17T19:09:23.923Z,101454.44
2023-11-17T19:11:52.453Z,101454.16
2023-11-17T19:14:20.738Z,101454.97
2023-11-17T19:16:49.222Z,101458.53
2023-11-17T19:19:17.793Z,101461.25
2023-11-17T19:21:46.246Z,101463.97
2023-11-17T19:24:23.187Z,101457.19
2023-11-17T19:27:08.558Z,101466.19
2023-11-17T19:29:40.882Z,101460.75
2023-11-17T19:32:10.616Z,101470.88
2023-11-17T19:34:40.235Z,101468.97
2023-11-17T19:37:08.644Z,101472.81
2023-11-17T19:39:39.512Z,101476.66
2023-11-17T19:42:12.877Z,101466.25
2023-11-17T19:44:50.079Z,101461.63
2023-11-17T19:47:20.183Z,101470.66
2023-11-17T19:49:48.678Z,101472.31
2023-11-17T19:52:19.885Z,101468.47
2023-11-17T19:54:50.705Z,101472.84
2023-11-17T19:57:18.798Z,101468.78
2023-11-17T19:59:47.252Z,101464.13
2023-11-17T20:02:15.929Z,101476.13
2023-11-17T20:04:44.299Z,101473.09
2023-11-17T20:07:15.723Z,101477.47
2023-11-17T20:09:45.421Z,101471.19
2023-11-17T20:12:13.687Z,101472.00
2023-11-17T20:14:42.370Z,101479.38
2023-11-17T20:17:11.516Z,101472.28
2023-11-17T20:19:41.057Z,101473.91
2023-11-17T20:22:09.397Z,101474.19
2023-11-17T20:24:38.182Z,101473.38
2023-11-17T20:27:07.330Z,101479.41
2023-11-17T20:29:35.766Z,101480.81
2023-11-17T20:32:04.036Z,101489.84
2023-11-17T20:34:32.288Z,101477.88
2023-11-17T20:37:00.473Z,101480.03
2023-11-17T20:39:30.445Z,101487.16
2023-11-17T20:41:58.487Z,101488.22
2023-11-17T20:44:27.867Z,101499.16
2023-11-17T20:46:59.685Z,101512.81
2023-11-17T20:49:28.318Z,101512.59
2023-11-17T20:51:56.406Z,101523.22
2023-11-17T20:54:26.131Z,101528.69
2023-11-17T20:56:54.238Z,101532.53
2023-11-17T20:59:22.424Z,101535.25
2023-11-17T21:01:52.474Z,101524.34
2023-11-17T21:04:20.652Z,101543.47
2023-11-17T21:06:51.473Z,101532.00
2023-11-17T21:09:23.825Z,101523.53
2023-11-17T21:11:52.687Z,101522.16
2023-11-17T21:14:21.223Z,101536.38
2023-11-17T21:16:50.676Z,101544.59
2023-11-17T21:19:19.192Z,101536.09
2023-11-17T21:21:47.308Z,101533.88
2023-11-17T21:24:25.171Z,101538.28
2023-11-17T21:26:56.977Z,101535.28
2023-11-17T21:29:25.062Z,101538.53
2023-11-17T21:31:53.720Z,101538.84
2023-11-17T21:34:22.880Z,101532.56
2023-11-17T21:36:52.374Z,101525.16
2023-11-17T21:39:21.935Z,101531.22
2023-11-17T21:41:49.959Z,101526.56
2023-11-17T21:44:22.431Z,101528.75
2023-11-17T21:46:51.504Z,101521.94
2023-11-17T21:49:19.783Z,101519.19
2023-11-17T21:51:48.206Z,101526.34
2023-11-17T21:54:17.018Z,101523.34
2023-11-17T21:56:45.794Z,101522.00
2023-11-17T21:59:16.767Z,101498.81
2023-11-17T22:01:47.377Z,101501.25
2023-11-17T22:04:17.774Z,101506.41
2023-11-17T22:06:56.190Z,101501.56
2023-11-17T22:09:24.455Z,101511.38
2023-11-17T22:11:52.603Z,101540.91
2023-11-17T22:14:21.582Z,101543.09
2023-11-17T22:16:50.994Z,101547.47
2023-11-17T22:19:19.464Z,101535.19
2023-11-17T22:21:49.136Z,101530.03
2023-11-17T22:24:18.768Z,101534.34
2023-11-17T22:26:47.860Z,101523.97
2023-11-17T22:29:16.203Z,101521.78
2023-11-17T22:31:44.410Z,101526.16
2023-11-17T22:34:13.077Z,101549.66
2023-11-17T22:36:41.288Z,101541.50
2023-11-17T22:39:10.524Z,101551.00
2023-11-17T22:41:38.526Z,101549.66
2023-11-17T22:44:08.026Z,101546.94
2023-11-17T22:46:39.977Z,101536.25
2023-11-17T22:49:10.505Z,101544.75
2023-11-17T22:51:38.761Z,101554.63
2023-11-17T22:54:07.335Z,101542.84
2023-11-17T22:56:35.387Z,101531.66
2023-11-17T22:59:03.528Z,101535.75
2023-11-17T23:01:35.399Z,101546.13
2023-11-17T23:04:07.894Z,101523.53
2023-11-17T23:06:36.511Z,101555.69
2023-11-17T23:09:10.926Z,101552.69
2023-11-17T23:11:40.143Z,101556.22
2023-11-17T23:14:10.278Z,101554.63
2023-11-17T23:16:38.545Z,101548.03
2023-11-17T23:21:41.327Z,101555.94
2023-11-17T23:24:09.579Z,101571.50
2023-11-17T23:26:38.058Z,101567.69
2023-11-17T23:29:07.133Z,101571.50
2023-11-17T23:31:35.607Z,101566.88
2023-11-17T23:34:03.908Z,101566.88
2023-11-17T23:36:32.009Z,101564.41
2023-11-17T23:38:59.993Z,101543.16
2023-11-17T23:41:28.761Z,101557.84
2023-11-17T23:43:56.787Z,101561.16
2023-11-17T23:46:24.852Z,101552.72
2023-11-17T23:48:52.829Z,101562.25
2023-11-17T23:51:21.106Z,101571.56
2023-11-17T23:53:50.332Z,101581.91
2023-11-17T23:56:19.513Z,101574.81
2023-11-17T23:58:48.281Z,101563.09
